Pagrindinis puslapis
METAR-TAF:

METAR-TAF

Oro uostai :

Karačis, Pakistanas

platuma: 24-54N, ilguma: 067-08E, Aukštis: 21 m

Dabartinis oras

Ataskaita buvo paskelbta 26 minutes, ne 11:55 UTC
Vėjas 11 kt iš Pietvakarių
Temperatūra 27°C
Drėgmė 48%
Slėgis 1012 hPa
Matomumas: 5000 m
migla

METAR: OPKC 251155Z 22011KT 5000 HZ NSC 27/15 Q1012 NOSIG

Laikas: 17:21 (12:21 UTC)

Prognozė

Ataskaita buvo paskelbta 2 valandos ir 21 minutes, ne 10:00 UTC
Prognozė galioja nuo 25 metu 12 UTC su 26 metu 18 UTC
Vėjas 8 kt iš Vakarų/Pietvakarių su gūsio iki 18 kt
Matomumas: 6000 m
Tapsmas
nuo 25 metu 18 UTC su 25 metu 20 UTC
Vėjas 10 kt iš Vakarų/Šiaurės Vakarų
Matomumas: 5000 m
migla
Laikinai
nuo 26 metu 00 UTC su 26 metu 05 UTC
Vėjas 7 kt iš Šiaurės/Šiaurės Rytų
Matomumas: 3000 m
dūmai
Nuo 26 metu 0500 UTC
Vėjas 7 kt iš Vakarų su gūsio iki 17 kt
Matomumas: 6000 m

TAF: OPKC 251000Z 2512/2618 25008G18KT 6000 NSC BECMG 2518/2520 30010KT 5000 HZ NSC TEMPO 2600/2605 02007KT 3000 FU NSC FM260500 26007G17KT 6000 NSC

Orai ataskaitas ir orų prognozės (METAR, TAF).

turimą stotys yra geltonos ir raudonos taškus žemėlapyje.

Perkelti pele per norėdami pamatyti stoties vardą.

Tada spustelėkite, norėdami matyti oro stebėjimo ir prognozės.

Norėdami pakeisti žemėlapį: spustelėkite ant žalios mygtukų su juodo kryžiaus žemyn,; žalią mygtuką su brūkšneliu, jei norite nutolinti; arba žalių rodyklių gretimoms žemėlapius.


METAR-TAF: